Hlavní strana
METAR-TAF:

METAR-TAF

Letiště :

Funafuti, Tuvalu

zeměpisná šířka: 08-31S, zeměpisná délka: 179-13E, výška: 1 m

Aktuální stav počasí

Zpráva byla vytvořena před 46 minutami, v 07:00 UTC
vítr z různých směrů 1 kt
Teplota 30°C
Vlhkost vzduchu 70%
Tlak 1009 hPa
Viditelnost 10 km a více
Skoro jasno ve výšce 2000 ft
Oblačno až skoro zataženo ve výšce 31000 ft

METAR: NGFU 250700Z VRB01KT 9999 FEW020 BKN310 30/24 Q1009

Čas: 19:46 (07:46 UTC)

Předpověď počasí

Zpráva byla vytvořena před 2 hodinami a 11 minutami, v 05:35 UTC
Předpověď platná od 25 v 06 UTC do 26 v 06 UTC
Severní vítr 5 kt
Viditelnost 10 km a více
Skoro jasno ve výšce 1800 ft

TAF: NGFU 250535Z 2506/2606 35005KT 9999 FEW018

Stav a předpovědi počasí z více než 4 000 letišť (zprávy METAR a TAF).

Červené a žluté tečky na mapě představují dostupné meteorologické stanice.

Když kurzor umístíte na tečku, zobrazí se název stanice.

Pak kliknutím zobrazíte stav a předpověď počasí.

Chcete-li změnit mapu, kliknutím na zelené tlačítko se znaménkem +mapu přiblížíte, kliknutím na zelené tlačítko se znaménkem – mapu oddálíte a kliknutím na zelené šipky přejdete na sousední mapy.


METAR-TAF: